createdAt,value
2017-12-27T00:00:50.615Z,91.22
2017-12-27T00:03:24.831Z,90.69
2017-12-27T00:05:59.044Z,89.92
2017-12-27T00:08:33.062Z,90.36
2017-12-27T00:11:07.476Z,92.16
2017-12-27T00:13:41.305Z,92.30
2017-12-27T00:16:15.501Z,93.93
2017-12-27T00:18:49.673Z,92.81
2017-12-27T00:21:24.030Z,93.32
2017-12-27T00:23:58.245Z,92.76
2017-12-27T00:26:32.700Z,92.48
2017-12-27T00:29:07.597Z,94.05
2017-12-27T00:31:36.578Z,93.22
2017-12-27T00:34:05.228Z,94.15
2017-12-27T00:36:34.685Z,93.81
2017-12-27T00:39:03.610Z,93.51
2017-12-27T00:41:33.031Z,93.64
2017-12-27T00:44:02.476Z,94.30
2017-12-27T00:46:31.360Z,93.72
2017-12-27T00:49:00.057Z,93.28
2017-12-27T00:51:28.643Z,93.52
2017-12-27T00:53:57.329Z,92.33
2017-12-27T00:56:26.009Z,90.11
2017-12-27T00:58:54.651Z,90.05
2017-12-27T01:01:24.099Z,89.85
2017-12-27T01:03:52.785Z,90.06
2017-12-27T01:06:21.471Z,90.57
2017-12-27T01:08:50.469Z,88.25
2017-12-27T01:11:19.143Z,88.80
2017-12-27T01:13:47.834Z,88.97
2017-12-27T01:16:16.579Z,90.07
2017-12-27T01:18:45.222Z,87.97
2017-12-27T01:21:13.892Z,86.81
2017-12-27T01:23:43.030Z,88.70
2017-12-27T01:26:12.493Z,91.37
2017-12-27T01:28:41.277Z,91.52
2017-12-27T01:31:10.187Z,91.50
2017-12-27T01:33:38.803Z,90.70
2017-12-27T01:36:08.256Z,89.86
2017-12-27T01:38:36.984Z,89.95
2017-12-27T01:41:06.451Z,89.78
2017-12-27T01:43:35.124Z,91.98
2017-12-27T01:46:03.866Z,92.87
2017-12-27T01:48:33.629Z,92.05
2017-12-27T01:51:02.215Z,92.25
2017-12-27T01:53:31.208Z,93.38
2017-12-27T01:55:59.837Z,90.99
2017-12-27T01:58:29.291Z,90.92
2017-12-27T02:00:58.022Z,89.80
2017-12-27T02:03:27.485Z,89.97
2017-12-27T02:05:56.132Z,92.35
2017-12-27T02:08:24.896Z,92.37
2017-12-27T02:10:53.589Z,92.87
2017-12-27T02:13:22.956Z,93.08
2017-12-27T02:15:51.836Z,93.19
2017-12-27T02:18:20.472Z,93.53
2017-12-27T02:20:49.931Z,93.77
2017-12-27T02:23:18.782Z,94.10
2017-12-27T02:25:47.449Z,93.29
2017-12-27T02:28:16.911Z,92.55
2017-12-27T02:30:46.009Z,92.35
2017-12-27T02:33:14.787Z,93.29
2017-12-27T02:35:43.590Z,92.61
2017-12-27T02:38:12.367Z,92.47
2017-12-27T02:40:40.947Z,92.12
2017-12-27T02:43:09.569Z,92.18
2017-12-27T02:45:38.517Z,92.31
2017-12-27T02:48:07.209Z,92.66
2017-12-27T02:50:35.851Z,93.33
2017-12-27T02:53:04.868Z,93.82
2017-12-27T02:55:33.573Z,93.49
2017-12-27T02:58:02.229Z,94.49
2017-12-27T03:00:31.196Z,93.35
2017-12-27T03:03:00.662Z,93.21
2017-12-27T03:05:29.387Z,94.38
2017-12-27T03:07:58.844Z,94.20
2017-12-27T03:10:27.531Z,93.65
2017-12-27T03:12:56.160Z,94.09
2017-12-27T03:15:25.726Z,94.76
2017-12-27T03:17:54.370Z,94.79
2017-12-27T03:20:23.097Z,94.33
2017-12-27T03:22:52.156Z,93.84
2017-12-27T03:25:20.876Z,93.90
2017-12-27T03:27:49.516Z,95.71
2017-12-27T03:30:19.234Z,95.04
2017-12-27T03:32:47.963Z,94.96
2017-12-27T03:35:16.540Z,94.86
2017-12-27T03:37:45.686Z,94.80
2017-12-27T03:40:15.142Z,93.91
2017-12-27T03:42:43.772Z,94.25
2017-12-27T03:45:13.541Z,93.72
2017-12-27T03:47:42.178Z,93.84
2017-12-27T03:50:11.519Z,95.70
2017-12-27T03:52:40.413Z,94.53
2017-12-27T03:55:09.060Z,95.15
2017-12-27T03:57:37.784Z,94.51
2017-12-27T04:00:06.725Z,94.57
2017-12-27T04:02:36.078Z,94.24
2017-12-27T04:05:04.762Z,94.04
2017-12-27T04:07:33.448Z,93.46
2017-12-27T04:10:02.133Z,92.76
2017-12-27T04:12:30.783Z,92.49
2017-12-27T04:14:59.505Z,92.67
2017-12-27T04:17:28.144Z,93.25
2017-12-27T04:19:57.600Z,92.84
2017-12-27T04:22:26.389Z,92.55
2017-12-27T04:24:55.047Z,91.86
2017-12-27T04:27:25.292Z,92.56
2017-12-27T04:29:54.231Z,92.83
2017-12-27T04:32:23.690Z,90.78
2017-12-27T04:34:52.317Z,92.08
2017-12-27T04:37:21.879Z,93.80
2017-12-27T04:39:50.565Z,93.90
2017-12-27T04:42:19.251Z,93.85
2017-12-27T04:44:47.936Z,93.92
2017-12-27T04:47:16.630Z,94.81
2017-12-27T04:49:45.248Z,94.28
2017-12-27T04:52:14.817Z,92.39
2017-12-27T04:54:43.402Z,93.67
2017-12-27T04:57:11.982Z,93.77
2017-12-27T04:59:40.765Z,95.20
2017-12-27T05:02:09.411Z,95.17
2017-12-27T05:04:38.141Z,94.64
2017-12-27T05:07:07.193Z,94.37
2017-12-27T05:09:36.639Z,93.53
2017-12-27T05:12:05.281Z,94.91
2017-12-27T05:14:34.219Z,92.64
2017-12-27T05:17:02.787Z,93.25
2017-12-27T05:19:31.479Z,91.42
2017-12-27T05:22:00.330Z,92.36
2017-12-27T05:24:28.960Z,93.29
2017-12-27T05:26:57.609Z,94.37
2017-12-27T05:29:26.530Z,94.42
2017-12-27T05:31:55.524Z,94.94
2017-12-27T05:34:24.166Z,95.26
2017-12-27T05:36:52.894Z,95.08
2017-12-27T05:39:21.526Z,95.16
2017-12-27T05:41:50.989Z,93.31
2017-12-27T05:44:19.711Z,93.12
2017-12-27T05:46:49.074Z,93.54
2017-12-27T05:49:17.641Z,93.52
2017-12-27T05:51:46.348Z,93.02
2017-12-27T05:54:14.923Z,91.95
2017-12-27T05:56:43.574Z,94.06
2017-12-27T05:59:12.570Z,93.14
2017-12-27T06:01:41.288Z,92.70
2017-12-27T06:04:09.927Z,93.12
2017-12-27T06:06:39.483Z,92.90
2017-12-27T06:09:08.168Z,94.23
2017-12-27T06:11:36.805Z,92.80
2017-12-27T06:14:06.523Z,92.77
2017-12-27T06:16:35.246Z,94.47
2017-12-27T06:19:03.883Z,94.70
2017-12-27T06:21:33.341Z,94.12
2017-12-27T06:24:02.119Z,94.49
2017-12-27T06:26:30.812Z,94.89
2017-12-27T06:29:00.419Z,93.92
2017-12-27T06:31:29.104Z,94.71
2017-12-27T06:33:57.790Z,93.75
2017-12-27T06:36:26.730Z,93.26
2017-12-27T06:38:56.183Z,93.00
2017-12-27T06:41:24.817Z,93.71
2017-12-27T06:43:54.475Z,92.89
2017-12-27T06:46:23.019Z,91.83
2017-12-27T06:48:52.445Z,91.29
2017-12-27T06:51:21.256Z,92.18
2017-12-27T06:53:49.946Z,92.47
2017-12-27T06:56:18.628Z,91.60
2017-12-27T06:58:47.721Z,93.07
2017-12-27T07:01:16.301Z,93.54
2017-12-27T07:03:45.054Z,89.14
2017-12-27T07:06:13.877Z,90.38
2017-12-27T07:08:42.563Z,89.65
2017-12-27T07:11:11.230Z,87.45
2017-12-27T07:13:40.220Z,89.46
2017-12-27T07:16:08.772Z,90.76
2017-12-27T07:18:38.227Z,92.77
2017-12-27T07:21:06.911Z,88.08
2017-12-27T07:23:35.598Z,86.00
2017-12-27T07:26:04.260Z,84.02
2017-12-27T07:28:33.075Z,86.58
2017-12-27T07:31:01.819Z,89.57
2017-12-27T07:33:31.263Z,88.46
2017-12-27T07:36:00.301Z,90.38
2017-12-27T07:38:29.666Z,91.78
2017-12-27T07:40:58.347Z,88.41
2017-12-27T07:43:27.137Z,87.38
2017-12-27T07:45:55.775Z,87.72
2017-12-27T07:48:25.315Z,89.15
2017-12-27T07:50:54.062Z,90.57
2017-12-27T07:53:23.514Z,89.38
2017-12-27T07:55:52.199Z,89.55
2017-12-27T07:58:20.985Z,88.25
2017-12-27T08:00:49.681Z,86.92
2017-12-27T08:03:18.466Z,90.78
2017-12-27T08:05:47.153Z,91.82
2017-12-27T08:08:15.838Z,91.36
2017-12-27T08:10:44.433Z,90.30
2017-12-27T08:13:13.366Z,87.95
2017-12-27T08:15:42.817Z,89.65
2017-12-27T08:18:11.455Z,89.23
2017-12-27T08:20:40.995Z,89.18
2017-12-27T08:23:09.697Z,89.74
2017-12-27T08:25:38.330Z,89.11
2017-12-27T08:28:07.880Z,84.41
2017-12-27T08:30:36.519Z,84.82
2017-12-27T08:33:05.252Z,86.46
2017-12-27T08:35:34.326Z,85.95
2017-12-27T08:38:02.881Z,86.31
2017-12-27T08:40:32.341Z,84.97
2017-12-27T08:43:01.082Z,86.42
2017-12-27T08:45:29.812Z,86.01
2017-12-27T08:47:58.497Z,88.17
2017-12-27T08:50:27.187Z,88.01
2017-12-27T08:52:56.628Z,87.84
2017-12-27T08:55:26.091Z,89.59
2017-12-27T08:57:54.976Z,89.42
2017-12-27T09:00:23.676Z,89.25
2017-12-27T09:02:52.245Z,87.28
2017-12-27T09:05:21.141Z,85.41
2017-12-27T09:07:49.784Z,86.11
2017-12-27T09:10:18.513Z,85.28
2017-12-27T09:12:47.444Z,86.23
2017-12-27T09:15:16.904Z,83.31
2017-12-27T09:17:45.700Z,85.08
2017-12-27T09:20:14.583Z,83.42
2017-12-27T09:22:43.215Z,82.39
2017-12-27T09:25:12.678Z,85.75
2017-12-27T09:27:41.401Z,87.73
2017-12-27T09:30:10.762Z,85.86
2017-12-27T09:32:39.386Z,85.36
2017-12-27T09:35:09.131Z,85.40
2017-12-27T09:37:37.841Z,80.30
2017-12-27T09:40:06.490Z,83.65
2017-12-27T09:42:35.213Z,81.46
2017-12-27T09:45:03.850Z,84.77
2017-12-27T09:47:33.308Z,82.17
2017-12-27T09:50:02.093Z,84.11
2017-12-27T09:52:30.728Z,83.68
2017-12-27T09:55:00.066Z,83.51
2017-12-27T09:57:29.138Z,82.99
2017-12-27T09:59:57.857Z,84.86
2017-12-27T10:02:26.499Z,82.95
2017-12-27T10:04:55.289Z,81.01
2017-12-27T10:07:24.737Z,84.22
2017-12-27T10:09:53.423Z,83.42
2017-12-27T10:12:22.112Z,85.02
2017-12-27T10:14:50.794Z,84.14
2017-12-27T10:17:19.430Z,86.78
2017-12-27T10:19:48.988Z,84.30
2017-12-27T10:22:17.674Z,84.37
2017-12-27T10:24:46.360Z,82.75
2017-12-27T10:27:15.202Z,83.16
2017-12-27T10:29:43.930Z,85.17
2017-12-27T10:32:12.588Z,84.45
2017-12-27T10:34:41.351Z,82.30
2017-12-27T10:37:10.878Z,83.38
2017-12-27T10:39:39.594Z,82.63
2017-12-27T10:42:08.389Z,83.93
2017-12-27T10:44:37.022Z,86.57
2017-12-27T10:47:06.475Z,85.05
2017-12-27T10:49:36.136Z,84.99
2017-12-27T10:52:05.445Z,85.82
2017-12-27T10:54:34.167Z,87.74
2017-12-27T10:57:02.961Z,88.04
2017-12-27T10:59:32.460Z,87.52
2017-12-27T11:02:01.125Z,86.64
2017-12-27T11:04:29.889Z,83.87
2017-12-27T11:06:59.230Z,85.16
2017-12-27T11:09:27.927Z,85.70
2017-12-27T11:11:56.771Z,84.06
2017-12-27T11:14:25.334Z,84.46
2017-12-27T11:16:54.033Z,83.60
2017-12-27T11:19:22.928Z,88.49
2017-12-27T11:21:51.567Z,83.52
2017-12-27T11:24:21.013Z,82.25
2017-12-27T11:26:49.812Z,82.47
2017-12-27T11:29:18.384Z,81.76
2017-12-27T11:31:47.069Z,83.35
2017-12-27T11:34:16.063Z,84.37
2017-12-27T11:36:44.699Z,82.30
2017-12-27T11:39:14.157Z,84.79
2017-12-27T11:41:42.943Z,84.11
2017-12-27T11:44:11.628Z,84.83
2017-12-27T11:46:40.295Z,85.50
2017-12-27T11:49:09.209Z,86.67
2017-12-27T11:51:37.851Z,86.38
2017-12-27T11:54:07.294Z,85.20
2017-12-27T11:56:36.177Z,85.12
2017-12-27T11:59:04.873Z,83.35
2017-12-27T12:01:33.559Z,85.37
2017-12-27T12:04:02.237Z,85.12
2017-12-27T12:06:30.930Z,85.97
2017-12-27T12:08:59.551Z,84.56
2017-12-27T12:11:29.014Z,85.06
2017-12-27T12:13:57.701Z,85.33
2017-12-27T12:16:26.243Z,87.21
2017-12-27T12:18:55.786Z,87.08
2017-12-27T12:21:24.471Z,85.99
2017-12-27T12:23:53.156Z,85.74
2017-12-27T12:26:22.129Z,86.97
2017-12-27T12:28:50.836Z,87.57
2017-12-27T12:31:19.464Z,86.14
2017-12-27T12:33:49.031Z,86.18
2017-12-27T12:36:17.720Z,87.18
2017-12-27T12:38:46.293Z,86.39
2017-12-27T12:41:15.361Z,85.58
2017-12-27T12:43:44.081Z,86.98
2017-12-27T12:46:12.746Z,86.18
2017-12-27T12:48:41.714Z,84.78
2017-12-27T12:51:11.159Z,85.52
2017-12-27T12:53:39.825Z,85.85
2017-12-27T12:56:08.818Z,87.04
2017-12-27T12:58:37.523Z,89.84
2017-12-27T13:01:06.154Z,87.45
2017-12-27T13:03:35.722Z,86.42
2017-12-27T13:06:04.404Z,88.37
2017-12-27T13:08:33.188Z,87.78
2017-12-27T13:11:02.149Z,89.34
2017-12-27T13:13:30.872Z,87.54
2017-12-27T13:15:59.553Z,88.51
2017-12-27T13:18:28.348Z,90.17
2017-12-27T13:20:57.119Z,87.90
2017-12-27T13:23:25.819Z,90.19
2017-12-27T13:25:54.731Z,89.41
2017-12-27T13:28:23.304Z,88.05
2017-12-27T13:30:51.941Z,86.96
2017-12-27T13:33:20.933Z,88.93
2017-12-27T13:35:49.653Z,87.76
2017-12-27T13:38:19.163Z,88.62
2017-12-27T13:40:48.112Z,88.86
2017-12-27T13:43:16.879Z,89.93
2017-12-27T13:45:45.626Z,90.02
2017-12-27T13:48:14.986Z,89.11
2017-12-27T13:50:44.436Z,88.71
2017-12-27T13:53:13.526Z,89.15
2017-12-27T13:55:42.212Z,88.57
2017-12-27T13:58:10.898Z,88.47
2017-12-27T14:00:39.529Z,89.90
2017-12-27T14:03:09.093Z,89.05
2017-12-27T14:05:37.779Z,88.69
2017-12-27T14:08:06.464Z,87.14
2017-12-27T14:10:35.148Z,88.45
2017-12-27T14:13:03.836Z,91.62
2017-12-27T14:15:32.459Z,90.27
2017-12-27T14:18:02.024Z,87.88
2017-12-27T14:20:31.293Z,88.12
2017-12-27T14:23:00.024Z,91.74
2017-12-27T14:25:28.900Z,91.56
2017-12-27T14:27:57.549Z,91.82
2017-12-27T14:30:26.271Z,92.12
2017-12-27T14:32:55.006Z,91.75
2017-12-27T14:35:24.320Z,92.38
2017-12-27T14:37:53.766Z,91.59
2017-12-27T14:40:23.437Z,91.22
2017-12-27T14:42:52.157Z,91.83
2017-12-27T14:45:20.823Z,90.99
2017-12-27T14:47:49.791Z,89.43
2017-12-27T14:50:18.522Z,91.98
2017-12-27T14:52:47.152Z,92.01
2017-12-27T14:55:16.768Z,91.85
2017-12-27T14:57:45.462Z,92.01
2017-12-27T15:00:14.096Z,92.30
2017-12-27T15:02:44.747Z,91.98
2017-12-27T15:05:13.462Z,90.71
2017-12-27T15:07:42.108Z,93.25
2017-12-27T15:10:10.872Z,92.82
2017-12-27T15:12:39.628Z,91.41
2017-12-27T15:15:08.922Z,91.21
2017-12-27T15:17:37.812Z,91.45
2017-12-27T15:20:06.447Z,92.97
2017-12-27T15:22:35.907Z,94.18
2017-12-27T15:25:04.959Z,92.98
2017-12-27T15:27:33.686Z,93.01
2017-12-27T15:30:02.371Z,91.95
2017-12-27T15:32:31.057Z,93.33
2017-12-27T15:34:59.803Z,94.10
2017-12-27T15:37:28.527Z,96.19
2017-12-27T15:39:57.212Z,94.84
2017-12-27T15:42:25.898Z,93.29
2017-12-27T15:44:54.550Z,92.63
2017-12-27T15:47:23.364Z,92.58
2017-12-27T15:49:52.066Z,93.17
2017-12-27T15:52:20.699Z,94.36
2017-12-27T15:54:50.248Z,94.26
2017-12-27T15:57:18.935Z,92.46
2017-12-27T15:59:47.730Z,93.40
2017-12-27T16:02:16.798Z,92.91
2017-12-27T16:04:45.509Z,92.52
2017-12-27T16:07:14.293Z,92.09
2017-12-27T16:09:43.495Z,91.39
2017-12-27T16:12:12.120Z,91.17
2017-12-27T16:14:41.579Z,93.27
2017-12-27T16:17:10.264Z,94.58
2017-12-27T16:19:38.951Z,94.08
2017-12-27T16:22:07.537Z,93.80
2017-12-27T16:24:36.230Z,94.51
2017-12-27T16:27:04.909Z,94.76
2017-12-27T16:29:33.597Z,93.57
2017-12-27T16:32:02.491Z,92.19
2017-12-27T16:34:31.176Z,91.07
2017-12-27T16:36:59.821Z,90.68
2017-12-27T16:39:28.547Z,93.61
2017-12-27T16:41:57.183Z,93.69
2017-12-27T16:44:26.635Z,95.64
2017-12-27T16:46:55.667Z,94.67
2017-12-27T16:49:25.133Z,93.21
2017-12-27T16:51:54.577Z,93.16
2017-12-27T16:54:24.142Z,92.17
2017-12-27T16:56:55.899Z,93.15
2017-12-27T16:59:24.681Z,93.16
2017-12-27T17:01:53.387Z,92.56
2017-12-27T17:04:22.052Z,92.59
2017-12-27T17:06:51.009Z,92.09
2017-12-27T17:09:19.737Z,91.16
2017-12-27T17:11:48.420Z,89.72
2017-12-27T17:14:17.036Z,89.88
2017-12-27T17:16:46.514Z,90.95
2017-12-27T17:19:15.200Z,91.67
2017-12-27T17:21:43.876Z,92.58
2017-12-27T17:24:12.572Z,91.76
2017-12-27T17:26:41.257Z,90.49
2017-12-27T17:29:10.139Z,87.90
2017-12-27T17:31:38.884Z,89.23
2017-12-27T17:34:08.278Z,89.51
2017-12-27T17:36:37.844Z,90.13
2017-12-27T17:39:06.408Z,89.65
2017-12-27T17:41:35.009Z,91.08
2017-12-27T17:44:03.846Z,89.32
2017-12-27T17:46:33.354Z,88.73
2017-12-27T17:49:02.810Z,88.68
2017-12-27T17:51:31.725Z,89.54
2017-12-27T17:54:00.489Z,87.57
2017-12-27T17:56:29.110Z,88.57
2017-12-27T17:58:58.672Z,89.82
2017-12-27T18:01:27.357Z,87.69
2017-12-27T18:03:56.252Z,87.73
2017-12-27T18:06:25.036Z,88.49
2017-12-27T18:08:53.723Z,89.90
2017-12-27T18:11:22.369Z,91.23
2017-12-27T18:13:51.262Z,91.98
2017-12-27T18:16:19.988Z,93.02
2017-12-27T18:18:48.566Z,92.96
2017-12-27T18:21:17.366Z,93.75
2017-12-27T18:23:45.928Z,92.77
2017-12-27T18:26:14.632Z,93.37
2017-12-27T18:28:43.794Z,92.88
2017-12-27T18:31:12.461Z,93.04
2017-12-27T18:33:42.117Z,91.83
2017-12-27T18:36:11.016Z,90.21
2017-12-27T18:38:39.795Z,89.94
2017-12-27T18:41:08.433Z,93.41
2017-12-27T18:43:37.925Z,92.33
2017-12-27T18:46:07.389Z,91.65
2017-12-27T18:48:36.043Z,90.18
2017-12-27T18:51:04.800Z,91.78
2017-12-27T18:53:33.556Z,91.28
2017-12-27T18:56:03.053Z,92.49
2017-12-27T18:58:31.740Z,91.35
2017-12-27T19:01:00.521Z,90.12
2017-12-27T19:03:29.112Z,91.67
2017-12-27T19:05:59.028Z,91.12
2017-12-27T19:08:27.677Z,90.29
2017-12-27T19:10:56.397Z,90.04
2017-12-27T19:13:25.599Z,88.93
2017-12-27T19:15:54.290Z,89.87
2017-12-27T19:18:22.970Z,88.27
2017-12-27T19:20:51.655Z,88.77
2017-12-27T19:23:20.440Z,88.29
2017-12-27T19:25:49.126Z,90.94
2017-12-27T19:28:17.816Z,91.06
2017-12-27T19:30:47.885Z,91.51
2017-12-27T19:33:17.335Z,90.62
2017-12-27T19:35:46.327Z,88.86
2017-12-27T19:38:14.965Z,88.62
2017-12-27T19:40:45.126Z,89.51
2017-12-27T19:43:14.175Z,89.63
2017-12-27T19:45:43.484Z,89.38
2017-12-27T19:48:12.214Z,90.85
2017-12-27T19:50:41.625Z,89.80
2017-12-27T19:53:10.190Z,91.25
2017-12-27T19:55:38.788Z,91.61
2017-12-27T19:58:07.572Z,92.35
2017-12-27T20:00:36.258Z,91.77
2017-12-27T20:03:04.893Z,89.46
2017-12-27T20:05:34.409Z,91.70
2017-12-27T20:08:03.139Z,92.53
2017-12-27T20:10:31.825Z,92.17
2017-12-27T20:13:01.688Z,94.03
2017-12-27T20:15:31.138Z,94.25
2017-12-27T20:17:59.773Z,93.16
2017-12-27T20:20:29.332Z,92.28
2017-12-27T20:22:57.958Z,92.75
2017-12-27T20:25:27.417Z,93.65
2017-12-27T20:27:56.212Z,92.96
2017-12-27T20:30:24.858Z,92.72
2017-12-27T20:32:53.682Z,93.59
2017-12-27T20:35:22.747Z,93.75
2017-12-27T20:37:51.460Z,92.81
2017-12-27T20:40:20.108Z,93.93
2017-12-27T20:42:48.832Z,94.43
2017-12-27T20:45:17.468Z,92.54
2017-12-27T20:47:46.820Z,94.75
2017-12-27T20:50:15.713Z,93.71
2017-12-27T20:52:44.346Z,92.89
2017-12-27T20:55:13.797Z,93.44
2017-12-27T20:57:42.790Z,92.92
2017-12-27T21:00:11.428Z,92.92
2017-12-27T21:02:40.886Z,92.92
2017-12-27T21:05:09.566Z,91.58
2017-12-27T21:07:38.257Z,91.58
2017-12-27T21:10:06.894Z,89.76
2017-12-27T21:12:36.441Z,89.24
2017-12-27T21:15:05.028Z,88.96
2017-12-27T21:17:33.674Z,91.05
2017-12-27T21:20:02.499Z,93.43
2017-12-27T21:22:31.185Z,92.87
2017-12-27T21:24:59.827Z,90.97
2017-12-27T21:27:28.556Z,92.38
2017-12-27T21:29:57.187Z,91.48
2017-12-27T21:32:26.651Z,91.75
2017-12-27T21:34:55.437Z,92.19
2017-12-27T21:37:24.945Z,91.90
2017-12-27T21:39:53.580Z,92.88
2017-12-27T21:42:23.029Z,92.90
2017-12-27T21:44:51.669Z,91.29
2017-12-27T21:47:26.951Z,90.98
2017-12-27T21:49:57.930Z,92.39
2017-12-27T21:52:27.493Z,89.70
2017-12-27T21:54:56.190Z,90.91
2017-12-27T21:57:24.868Z,91.71
2017-12-27T22:02:57.130Z,92.56
2017-12-27T22:05:25.998Z,91.47
2017-12-27T22:07:55.353Z,93.08
2017-12-27T22:10:23.941Z,92.55
2017-12-27T22:12:53.100Z,92.48
2017-12-27T22:15:21.818Z,94.26
2017-12-27T22:17:50.461Z,93.57
2017-12-27T22:20:24.879Z,94.28
2017-12-27T22:22:54.326Z,93.29
2017-12-27T22:25:22.964Z,92.23
2017-12-27T22:27:52.828Z,90.75
2017-12-27T22:30:21.575Z,92.24
2017-12-27T22:32:50.304Z,92.44
2017-12-27T22:35:18.988Z,92.31
2017-12-27T22:37:47.628Z,92.89
2017-12-27T22:40:16.356Z,92.81
2017-12-27T22:42:45.151Z,94.84
2017-12-27T22:45:13.837Z,93.77
2017-12-27T22:47:42.622Z,93.32
2017-12-27T22:50:11.308Z,95.29
2017-12-27T22:52:39.994Z,93.34
2017-12-27T22:55:08.680Z,94.03
2017-12-27T22:57:37.364Z,93.87
2017-12-27T23:00:06.052Z,93.50
2017-12-27T23:02:34.679Z,93.13
2017-12-27T23:05:04.622Z,92.85
2017-12-27T23:07:33.338Z,92.91
2017-12-27T23:10:01.982Z,93.56
2017-12-27T23:12:30.974Z,92.01
2017-12-27T23:14:59.702Z,92.23
2017-12-27T23:17:28.280Z,93.07
2017-12-27T23:19:57.327Z,93.98
2017-12-27T23:22:26.780Z,93.86
2017-12-27T23:24:55.367Z,95.24
2017-12-27T23:27:24.053Z,94.74
2017-12-27T23:29:52.673Z,95.16
2017-12-27T23:32:22.137Z,94.36
2017-12-27T23:34:51.031Z,94.38
2017-12-27T23:37:19.718Z,93.77
2017-12-27T23:39:48.344Z,93.93
2017-12-27T23:42:18.112Z,92.74
2017-12-27T23:44:46.754Z,92.14
2017-12-27T23:47:15.481Z,94.23
2017-12-27T23:49:44.212Z,93.83
2017-12-27T23:52:13.577Z,94.48
2017-12-27T23:54:42.155Z,93.48
2017-12-27T23:57:11.117Z,93.63
2017-12-27T23:59:39.832Z,94.83
